Terminal Aerodrome Forecast
Issued by NWS Sterling, VA

Home | Current Version | Previous Version | Text Only | Print | Product List | Glossary On
Versions: 1 2 3 4 5 6 7 8 9 10 11 12 13 14 15 16 17 18 19 20 21 22 23 24
532
FTUS41 KLWX 201445 AAA
TAFBWI
TAF AMD
KBWI 201445Z 2015/2118 28010KT P6SM FEW150 FEW250
     FM202200 24007KT P6SM FEW150 FEW250
     FM211600 21011KT P6SM FEW200 FEW250=

USA.gov is the U.S. government's official web portal to all federal, state and local government web resources and services.